sensor_id;sensor_type;location;lat;lon;timestamp;P1;durP1;ratioP1;P2;durP2;ratioP2
14078;SDS011;7115;50.150;8.568;2023-12-20T00:02:18;10.77;;;6.60;;
14078;SDS011;7115;50.150;8.568;2023-12-20T00:04:45;10.20;;;7.03;;
14078;SDS011;7115;50.150;8.568;2023-12-20T00:07:13;14.27;;;6.30;;
14078;SDS011;7115;50.150;8.568;2023-12-20T00:09:41;11.07;;;6.37;;
14078;SDS011;7115;50.150;8.568;2023-12-20T00:12:08;10.17;;;6.00;;
14078;SDS011;7115;50.150;8.568;2023-12-20T00:14:34;9.47;;;6.27;;
14078;SDS011;7115;50.150;8.568;2023-12-20T00:17:02;13.70;;;6.90;;
14078;SDS011;7115;50.150;8.568;2023-12-20T00:19:29;10.33;;;6.07;;
14078;SDS011;7115;50.150;8.568;2023-12-20T00:21:56;8.47;;;5.57;;
14078;SDS011;7115;50.150;8.568;2023-12-20T00:24:24;8.93;;;5.80;;
14078;SDS011;7115;50.150;8.568;2023-12-20T00:26:51;10.07;;;6.57;;
14078;SDS011;7115;50.150;8.568;2023-12-20T00:29:18;9.30;;;5.93;;
14078;SDS011;7115;50.150;8.568;2023-12-20T00:31:45;11.37;;;5.93;;
14078;SDS011;7115;50.150;8.568;2023-12-20T00:34:12;8.73;;;5.70;;
14078;SDS011;7115;50.150;8.568;2023-12-20T00:36:39;9.80;;;6.27;;
14078;SDS011;7115;50.150;8.568;2023-12-20T00:39:06;8.23;;;5.83;;
14078;SDS011;7115;50.150;8.568;2023-12-20T00:41:35;8.97;;;6.50;;
14078;SDS011;7115;50.150;8.568;2023-12-20T00:44:01;9.57;;;5.63;;
14078;SDS011;7115;50.150;8.568;2023-12-20T00:46:29;9.17;;;6.50;;
14078;SDS011;7115;50.150;8.568;2023-12-20T00:48:56;10.03;;;6.00;;
14078;SDS011;7115;50.150;8.568;2023-12-20T00:51:23;10.03;;;5.37;;
14078;SDS011;7115;50.150;8.568;2023-12-20T00:53:50;11.07;;;5.50;;
14078;SDS011;7115;50.150;8.568;2023-12-20T00:56:21;9.07;;;5.67;;
14078;SDS011;7115;50.150;8.568;2023-12-20T00:58:49;10.80;;;6.33;;
14078;SDS011;7115;50.150;8.568;2023-12-20T01:01:16;9.47;;;5.83;;
14078;SDS011;7115;50.150;8.568;2023-12-20T01:03:43;8.17;;;5.30;;
14078;SDS011;7115;50.150;8.568;2023-12-20T01:06:10;9.23;;;5.73;;
14078;SDS011;7115;50.150;8.568;2023-12-20T01:08:37;9.40;;;5.60;;
14078;SDS011;7115;50.150;8.568;2023-12-20T01:11:05;7.97;;;5.37;;
14078;SDS011;7115;50.150;8.568;2023-12-20T01:13:32;9.83;;;6.10;;
14078;SDS011;7115;50.150;8.568;2023-12-20T01:16:00;12.70;;;5.63;;
14078;SDS011;7115;50.150;8.568;2023-12-20T01:18:27;6.83;;;4.97;;
14078;SDS011;7115;50.150;8.568;2023-12-20T01:20:54;7.83;;;5.17;;
14078;SDS011;7115;50.150;8.568;2023-12-20T01:23:21;7.47;;;5.60;;
14078;SDS011;7115;50.150;8.568;2023-12-20T01:25:48;7.10;;;4.87;;
14078;SDS011;7115;50.150;8.568;2023-12-20T01:28:15;8.50;;;5.33;;
14078;SDS011;7115;50.150;8.568;2023-12-20T01:30:42;9.53;;;5.30;;
14078;SDS011;7115;50.150;8.568;2023-12-20T01:33:11;8.43;;;5.80;;
14078;SDS011;7115;50.150;8.568;2023-12-20T01:35:38;8.03;;;4.87;;
14078;SDS011;7115;50.150;8.568;2023-12-20T01:38:05;8.53;;;5.33;;
14078;SDS011;7115;50.150;8.568;2023-12-20T01:40:32;7.87;;;4.57;;
14078;SDS011;7115;50.150;8.568;2023-12-20T01:42:59;8.00;;;5.23;;
14078;SDS011;7115;50.150;8.568;2023-12-20T01:45:26;10.47;;;5.07;;
14078;SDS011;7115;50.150;8.568;2023-12-20T01:47:53;7.47;;;5.10;;
14078;SDS011;7115;50.150;8.568;2023-12-20T01:50:23;6.70;;;4.47;;
14078;SDS011;7115;50.150;8.568;2023-12-20T01:52:50;6.87;;;5.03;;
14078;SDS011;7115;50.150;8.568;2023-12-20T01:55:21;7.40;;;4.67;;
14078;SDS011;7115;50.150;8.568;2023-12-20T01:57:48;6.30;;;4.80;;
14078;SDS011;7115;50.150;8.568;2023-12-20T02:00:16;8.07;;;5.23;;
14078;SDS011;7115;50.150;8.568;2023-12-20T02:02:46;8.43;;;5.57;;
14078;SDS011;7115;50.150;8.568;2023-12-20T02:05:13;9.10;;;5.40;;
14078;SDS011;7115;50.150;8.568;2023-12-20T02:07:42;7.10;;;4.90;;
14078;SDS011;7115;50.150;8.568;2023-12-20T02:10:09;7.33;;;4.83;;
14078;SDS011;7115;50.150;8.568;2023-12-20T02:12:37;10.13;;;5.13;;
14078;SDS011;7115;50.150;8.568;2023-12-20T02:15:05;8.00;;;4.97;;
14078;SDS011;7115;50.150;8.568;2023-12-20T02:17:32;6.67;;;4.60;;
14078;SDS011;7115;50.150;8.568;2023-12-20T02:20:00;6.77;;;5.03;;
14078;SDS011;7115;50.150;8.568;2023-12-20T02:22:28;8.27;;;5.07;;
14078;SDS011;7115;50.150;8.568;2023-12-20T02:24:55;7.33;;;4.47;;
14078;SDS011;7115;50.150;8.568;2023-12-20T02:27:22;6.30;;;4.50;;
14078;SDS011;7115;50.150;8.568;2023-12-20T02:29:50;6.27;;;4.47;;
14078;SDS011;7115;50.150;8.568;2023-12-20T02:32:17;6.17;;;4.80;;
14078;SDS011;7115;50.150;8.568;2023-12-20T02:34:45;6.43;;;5.10;;
14078;SDS011;7115;50.150;8.568;2023-12-20T02:37:13;7.80;;;4.87;;
14078;SDS011;7115;50.150;8.568;2023-12-20T02:39:42;6.50;;;4.50;;
14078;SDS011;7115;50.150;8.568;2023-12-20T02:42:09;7.23;;;4.57;;
14078;SDS011;7115;50.150;8.568;2023-12-20T02:44:35;5.27;;;4.10;;
14078;SDS011;7115;50.150;8.568;2023-12-20T02:47:02;6.47;;;4.37;;
14078;SDS011;7115;50.150;8.568;2023-12-20T02:49:29;12.17;;;5.33;;
14078;SDS011;7115;50.150;8.568;2023-12-20T02:51:57;5.93;;;4.27;;
14078;SDS011;7115;50.150;8.568;2023-12-20T02:54:24;6.03;;;4.60;;
14078;SDS011;7115;50.150;8.568;2023-12-20T02:56:52;6.77;;;4.50;;
14078;SDS011;7115;50.150;8.568;2023-12-20T02:59:19;12.27;;;4.73;;
14078;SDS011;7115;50.150;8.568;2023-12-20T03:01:46;7.73;;;5.00;;
14078;SDS011;7115;50.150;8.568;2023-12-20T03:04:13;6.80;;;4.67;;
14078;SDS011;7115;50.150;8.568;2023-12-20T03:06:40;6.13;;;4.10;;
14078;SDS011;7115;50.150;8.568;2023-12-20T03:09:07;6.77;;;4.27;;
14078;SDS011;7115;50.150;8.568;2023-12-20T03:11:34;5.80;;;4.30;;
14078;SDS011;7115;50.150;8.568;2023-12-20T03:14:02;6.53;;;4.60;;
14078;SDS011;7115;50.150;8.568;2023-12-20T03:16:29;6.10;;;4.43;;
14078;SDS011;7115;50.150;8.568;2023-12-20T03:18:59;6.90;;;4.23;;
14078;SDS011;7115;50.150;8.568;2023-12-20T03:21:26;5.93;;;4.27;;
14078;SDS011;7115;50.150;8.568;2023-12-20T03:23:53;7.40;;;4.20;;
14078;SDS011;7115;50.150;8.568;2023-12-20T03:26:20;5.27;;;3.83;;
14078;SDS011;7115;50.150;8.568;2023-12-20T03:28:48;4.77;;;3.53;;
14078;SDS011;7115;50.150;8.568;2023-12-20T03:31:16;7.17;;;3.73;;
14078;SDS011;7115;50.150;8.568;2023-12-20T03:33:43;5.70;;;3.70;;
14078;SDS011;7115;50.150;8.568;2023-12-20T03:36:10;5.20;;;3.67;;
14078;SDS011;7115;50.150;8.568;2023-12-20T03:38:37;5.07;;;3.83;;
14078;SDS011;7115;50.150;8.568;2023-12-20T03:41:04;3.97;;;3.30;;
14078;SDS011;7115;50.150;8.568;2023-12-20T03:43:33;5.17;;;4.00;;
14078;SDS011;7115;50.150;8.568;2023-12-20T03:46:00;4.47;;;3.40;;
14078;SDS011;7115;50.150;8.568;2023-12-20T03:48:31;6.63;;;3.80;;
14078;SDS011;7115;50.150;8.568;2023-12-20T03:50:58;5.20;;;3.57;;
14078;SDS011;7115;50.150;8.568;2023-12-20T03:53:25;4.80;;;3.60;;
14078;SDS011;7115;50.150;8.568;2023-12-20T03:55:52;5.33;;;3.70;;
14078;SDS011;7115;50.150;8.568;2023-12-20T03:58:19;5.90;;;3.40;;
14078;SDS011;7115;50.150;8.568;2023-12-20T04:00:46;4.73;;;3.63;;
14078;SDS011;7115;50.150;8.568;2023-12-20T04:03:13;4.93;;;3.50;;
14078;SDS011;7115;50.150;8.568;2023-12-20T04:05:41;5.20;;;3.93;;
14078;SDS011;7115;50.150;8.568;2023-12-20T04:08:08;5.63;;;4.30;;
14078;SDS011;7115;50.150;8.568;2023-12-20T04:10:36;4.73;;;3.53;;
14078;SDS011;7115;50.150;8.568;2023-12-20T04:13:03;5.77;;;3.80;;
14078;SDS011;7115;50.150;8.568;2023-12-20T04:15:30;5.03;;;4.00;;
14078;SDS011;7115;50.150;8.568;2023-12-20T04:17:57;6.27;;;3.90;;
14078;SDS011;7115;50.150;8.568;2023-12-20T04:20:24;7.10;;;3.63;;
14078;SDS011;7115;50.150;8.568;2023-12-20T04:22:53;5.57;;;3.90;;
14078;SDS011;7115;50.150;8.568;2023-12-20T04:25:19;6.67;;;3.97;;
14078;SDS011;7115;50.150;8.568;2023-12-20T04:27:47;4.47;;;3.13;;
14078;SDS011;7115;50.150;8.568;2023-12-20T04:30:14;4.80;;;3.57;;
14078;SDS011;7115;50.150;8.568;2023-12-20T04:32:41;4.93;;;3.30;;
14078;SDS011;7115;50.150;8.568;2023-12-20T04:35:08;5.13;;;3.37;;
14078;SDS011;7115;50.150;8.568;2023-12-20T04:37:35;4.83;;;3.40;;
14078;SDS011;7115;50.150;8.568;2023-12-20T04:40:04;4.90;;;3.37;;
14078;SDS011;7115;50.150;8.568;2023-12-20T04:42:32;6.20;;;3.80;;
14078;SDS011;7115;50.150;8.568;2023-12-20T04:44:59;4.47;;;2.97;;
14078;SDS011;7115;50.150;8.568;2023-12-20T04:47:26;3.70;;;2.70;;
14078;SDS011;7115;50.150;8.568;2023-12-20T04:49:53;6.10;;;3.53;;
14078;SDS011;7115;50.150;8.568;2023-12-20T04:52:20;5.17;;;3.33;;
14078;SDS011;7115;50.150;8.568;2023-12-20T04:54:47;5.20;;;3.07;;
14078;SDS011;7115;50.150;8.568;2023-12-20T04:57:16;5.33;;;3.27;;
14078;SDS011;7115;50.150;8.568;2023-12-20T04:59:43;4.70;;;3.13;;
14078;SDS011;7115;50.150;8.568;2023-12-20T05:02:10;6.73;;;3.83;;
14078;SDS011;7115;50.150;8.568;2023-12-20T05:04:37;6.20;;;3.60;;
14078;SDS011;7115;50.150;8.568;2023-12-20T05:07:05;3.93;;;3.30;;
14078;SDS011;7115;50.150;8.568;2023-12-20T05:09:32;5.37;;;3.43;;
14078;SDS011;7115;50.150;8.568;2023-12-20T05:11:59;4.60;;;3.30;;
14078;SDS011;7115;50.150;8.568;2023-12-20T05:14:28;5.23;;;3.50;;
14078;SDS011;7115;50.150;8.568;2023-12-20T05:16:55;5.67;;;3.13;;
14078;SDS011;7115;50.150;8.568;2023-12-20T05:19:22;4.60;;;3.10;;
14078;SDS011;7115;50.150;8.568;2023-12-20T05:21:49;5.13;;;2.37;;
14078;SDS011;7115;50.150;8.568;2023-12-20T05:24:16;10.10;;;2.70;;
14078;SDS011;7115;50.150;8.568;2023-12-20T05:26:43;5.67;;;2.87;;
14078;SDS011;7115;50.150;8.568;2023-12-20T05:29:10;4.63;;;2.10;;
14078;SDS011;7115;50.150;8.568;2023-12-20T05:31:38;4.30;;;2.10;;
14078;SDS011;7115;50.150;8.568;2023-12-20T05:34:05;5.27;;;2.30;;
14078;SDS011;7115;50.150;8.568;2023-12-20T05:36:32;3.80;;;1.57;;
14078;SDS011;7115;50.150;8.568;2023-12-20T05:38:59;7.57;;;2.00;;
14078;SDS011;7115;50.150;8.568;2023-12-20T05:41:26;2.17;;;1.67;;
14078;SDS011;7115;50.150;8.568;2023-12-20T05:43:53;1.97;;;1.37;;
14078;SDS011;7115;50.150;8.568;2023-12-20T05:46:20;4.40;;;1.70;;
14078;SDS011;7115;50.150;8.568;2023-12-20T05:48:49;4.13;;;1.53;;
14078;SDS011;7115;50.150;8.568;2023-12-20T05:51:17;7.13;;;1.73;;
14078;SDS011;7115;50.150;8.568;2023-12-20T05:53:44;6.13;;;1.87;;
14078;SDS011;7115;50.150;8.568;2023-12-20T05:56:11;5.00;;;1.43;;
14078;SDS011;7115;50.150;8.568;2023-12-20T05:58:38;6.63;;;1.47;;
14078;SDS011;7115;50.150;8.568;2023-12-20T06:01:06;3.27;;;1.47;;
14078;SDS011;7115;50.150;8.568;2023-12-20T06:03:34;5.83;;;1.43;;
14078;SDS011;7115;50.150;8.568;2023-12-20T06:06:05;4.97;;;1.43;;
14078;SDS011;7115;50.150;8.568;2023-12-20T06:08:42;7.17;;;1.70;;
14078;SDS011;7115;50.150;8.568;2023-12-20T06:11:10;5.23;;;1.27;;
14078;SDS011;7115;50.150;8.568;2023-12-20T06:13:37;6.57;;;1.60;;
14078;SDS011;7115;50.150;8.568;2023-12-20T06:16:05;5.60;;;2.33;;
14078;SDS011;7115;50.150;8.568;2023-12-20T06:18:32;7.37;;;1.40;;
14078;SDS011;7115;50.150;8.568;2023-12-20T06:20:59;4.30;;;1.33;;
14078;SDS011;7115;50.150;8.568;2023-12-20T06:23:27;7.27;;;1.50;;
14078;SDS011;7115;50.150;8.568;2023-12-20T06:25:54;3.93;;;1.43;;
14078;SDS011;7115;50.150;8.568;2023-12-20T06:28:21;5.70;;;1.30;;
14078;SDS011;7115;50.150;8.568;2023-12-20T06:30:49;3.30;;;1.60;;
14078;SDS011;7115;50.150;8.568;2023-12-20T06:33:18;5.77;;;1.53;;
14078;SDS011;7115;50.150;8.568;2023-12-20T06:35:46;8.17;;;1.40;;
14078;SDS011;7115;50.150;8.568;2023-12-20T06:38:13;6.20;;;1.40;;
14078;SDS011;7115;50.150;8.568;2023-12-20T06:40:41;8.33;;;1.83;;
14078;SDS011;7115;50.150;8.568;2023-12-20T06:43:09;8.93;;;1.70;;
14078;SDS011;7115;50.150;8.568;2023-12-20T06:45:51;3.70;;;1.77;;
14078;SDS011;7115;50.150;8.568;2023-12-20T06:48:18;7.57;;;1.50;;
14078;SDS011;7115;50.150;8.568;2023-12-20T06:50:46;4.57;;;1.50;;
14078;SDS011;7115;50.150;8.568;2023-12-20T06:53:13;1.70;;;1.23;;
14078;SDS011;7115;50.150;8.568;2023-12-20T06:55:41;3.60;;;1.47;;
14078;SDS011;7115;50.150;8.568;2023-12-20T06:58:08;5.73;;;2.00;;
14078;SDS011;7115;50.150;8.568;2023-12-20T07:00:35;4.80;;;1.43;;
14078;SDS011;7115;50.150;8.568;2023-12-20T07:03:02;9.13;;;2.23;;
14078;SDS011;7115;50.150;8.568;2023-12-20T07:05:29;6.53;;;1.70;;
14078;SDS011;7115;50.150;8.568;2023-12-20T07:07:56;7.10;;;1.63;;
14078;SDS011;7115;50.150;8.568;2023-12-20T07:10:24;7.17;;;2.17;;
14078;SDS011;7115;50.150;8.568;2023-12-20T07:12:52;6.03;;;1.70;;
14078;SDS011;7115;50.150;8.568;2023-12-20T07:15:21;5.30;;;1.83;;
14078;SDS011;7115;50.150;8.568;2023-12-20T07:17:48;2.67;;;1.97;;
14078;SDS011;7115;50.150;8.568;2023-12-20T07:20:16;15.30;;;7.00;;
14078;SDS011;7115;50.150;8.568;2023-12-20T07:22:43;6.90;;;2.37;;
14078;SDS011;7115;50.150;8.568;2023-12-20T07:25:10;4.57;;;2.10;;
14078;SDS011;7115;50.150;8.568;2023-12-20T07:27:37;9.90;;;2.40;;
14078;SDS011;7115;50.150;8.568;2023-12-20T07:30:09;9.37;;;2.27;;
14078;SDS011;7115;50.150;8.568;2023-12-20T07:32:37;5.73;;;1.90;;
14078;SDS011;7115;50.150;8.568;2023-12-20T07:35:04;5.07;;;2.20;;
14078;SDS011;7115;50.150;8.568;2023-12-20T07:37:32;4.80;;;1.80;;
14078;SDS011;7115;50.150;8.568;2023-12-20T07:39:59;7.87;;;2.20;;
14078;SDS011;7115;50.150;8.568;2023-12-20T07:42:26;7.83;;;2.03;;
14078;SDS011;7115;50.150;8.568;2023-12-20T07:44:52;5.00;;;1.93;;
14078;SDS011;7115;50.150;8.568;2023-12-20T07:47:21;10.07;;;1.90;;
14078;SDS011;7115;50.150;8.568;2023-12-20T07:49:48;5.87;;;1.83;;
14078;SDS011;7115;50.150;8.568;2023-12-20T07:52:15;7.63;;;2.03;;
14078;SDS011;7115;50.150;8.568;2023-12-20T07:54:42;8.20;;;1.80;;
14078;SDS011;7115;50.150;8.568;2023-12-20T07:57:09;4.70;;;1.73;;
14078;SDS011;7115;50.150;8.568;2023-12-20T07:59:39;5.03;;;1.40;;
14078;SDS011;7115;50.150;8.568;2023-12-20T08:02:06;7.73;;;2.10;;
14078;SDS011;7115;50.150;8.568;2023-12-20T08:04:34;2.93;;;1.60;;
14078;SDS011;7115;50.150;8.568;2023-12-20T08:07:01;7.53;;;1.90;;
14078;SDS011;7115;50.150;8.568;2023-12-20T08:09:29;7.03;;;3.13;;
14078;SDS011;7115;50.150;8.568;2023-12-20T08:11:58;7.07;;;2.17;;
14078;SDS011;7115;50.150;8.568;2023-12-20T08:14:26;5.13;;;1.60;;
14078;SDS011;7115;50.150;8.568;2023-12-20T08:16:53;14.20;;;2.87;;
14078;SDS011;7115;50.150;8.568;2023-12-20T08:19:20;3.27;;;1.73;;
14078;SDS011;7115;50.150;8.568;2023-12-20T08:21:48;4.93;;;2.10;;
14078;SDS011;7115;50.150;8.568;2023-12-20T08:24:15;5.97;;;1.90;;
14078;SDS011;7115;50.150;8.568;2023-12-20T08:26:42;5.37;;;1.63;;
14078;SDS011;7115;50.150;8.568;2023-12-20T08:29:09;5.43;;;2.00;;
14078;SDS011;7115;50.150;8.568;2023-12-20T08:31:36;7.30;;;2.13;;
14078;SDS011;7115;50.150;8.568;2023-12-20T08:34:03;11.33;;;2.07;;
14078;SDS011;7115;50.150;8.568;2023-12-20T08:36:34;6.10;;;1.83;;
14078;SDS011;7115;50.150;8.568;2023-12-20T08:39:02;8.03;;;1.97;;
14078;SDS011;7115;50.150;8.568;2023-12-20T08:41:32;3.97;;;1.70;;
14078;SDS011;7115;50.150;8.568;2023-12-20T08:43:59;7.00;;;1.90;;
14078;SDS011;7115;50.150;8.568;2023-12-20T08:46:26;7.37;;;1.53;;
14078;SDS011;7115;50.150;8.568;2023-12-20T08:48:53;7.33;;;1.70;;
14078;SDS011;7115;50.150;8.568;2023-12-20T08:51:20;4.00;;;1.77;;
14078;SDS011;7115;50.150;8.568;2023-12-20T08:53:49;8.03;;;1.97;;
14078;SDS011;7115;50.150;8.568;2023-12-20T08:56:17;4.67;;;1.60;;
14078;SDS011;7115;50.150;8.568;2023-12-20T08:58:44;5.37;;;1.50;;
14078;SDS011;7115;50.150;8.568;2023-12-20T09:01:11;7.17;;;1.97;;
14078;SDS011;7115;50.150;8.568;2023-12-20T09:03:39;6.83;;;1.80;;
14078;SDS011;7115;50.150;8.568;2023-12-20T09:06:06;10.10;;;1.63;;
14078;SDS011;7115;50.150;8.568;2023-12-20T09:08:33;6.90;;;2.17;;
14078;SDS011;7115;50.150;8.568;2023-12-20T09:11:00;8.60;;;2.30;;
14078;SDS011;7115;50.150;8.568;2023-12-20T09:13:29;10.53;;;4.10;;
14078;SDS011;7115;50.150;8.568;2023-12-20T09:15:58;8.00;;;1.90;;
14078;SDS011;7115;50.150;8.568;2023-12-20T09:18:25;5.93;;;1.70;;
14078;SDS011;7115;50.150;8.568;2023-12-20T09:20:53;5.27;;;1.73;;
14078;SDS011;7115;50.150;8.568;2023-12-20T09:23:20;4.77;;;1.47;;
14078;SDS011;7115;50.150;8.568;2023-12-20T09:25:47;4.20;;;1.40;;
14078;SDS011;7115;50.150;8.568;2023-12-20T09:28:14;4.13;;;1.50;;
14078;SDS011;7115;50.150;8.568;2023-12-20T09:30:42;3.57;;;1.50;;
14078;SDS011;7115;50.150;8.568;2023-12-20T09:33:11;5.17;;;1.63;;
14078;SDS011;7115;50.150;8.568;2023-12-20T09:35:38;8.03;;;1.40;;
14078;SDS011;7115;50.150;8.568;2023-12-20T09:38:06;5.83;;;1.57;;
14078;SDS011;7115;50.150;8.568;2023-12-20T09:40:33;7.47;;;1.97;;
14078;SDS011;7115;50.150;8.568;2023-12-20T09:43:03;9.50;;;1.70;;
14078;SDS011;7115;50.150;8.568;2023-12-20T09:45:31;5.43;;;1.63;;
14078;SDS011;7115;50.150;8.568;2023-12-20T09:48:00;6.10;;;1.50;;
14078;SDS011;7115;50.150;8.568;2023-12-20T09:50:30;6.90;;;1.63;;
14078;SDS011;7115;50.150;8.568;2023-12-20T09:52:58;7.77;;;1.93;;
14078;SDS011;7115;50.150;8.568;2023-12-20T09:55:28;4.97;;;1.50;;
14078;SDS011;7115;50.150;8.568;2023-12-20T09:57:59;4.40;;;1.50;;
14078;SDS011;7115;50.150;8.568;2023-12-20T10:00:26;7.70;;;1.50;;
14078;SDS011;7115;50.150;8.568;2023-12-20T10:02:56;5.43;;;1.20;;
14078;SDS011;7115;50.150;8.568;2023-12-20T10:05:26;7.53;;;1.50;;
14078;SDS011;7115;50.150;8.568;2023-12-20T10:07:55;4.83;;;1.47;;
14078;SDS011;7115;50.150;8.568;2023-12-20T10:10:23;6.30;;;1.50;;
14078;SDS011;7115;50.150;8.568;2023-12-20T10:13:08;4.60;;;1.60;;
14078;SDS011;7115;50.150;8.568;2023-12-20T10:15:36;2.13;;;1.10;;
14078;SDS011;7115;50.150;8.568;2023-12-20T10:18:04;7.53;;;1.50;;
14078;SDS011;7115;50.150;8.568;2023-12-20T10:20:33;2.37;;;1.13;;
14078;SDS011;7115;50.150;8.568;2023-12-20T10:23:00;3.47;;;1.50;;
14078;SDS011;7115;50.150;8.568;2023-12-20T10:25:28;5.13;;;1.40;;
14078;SDS011;7115;50.150;8.568;2023-12-20T10:28:08;3.43;;;1.03;;
14078;SDS011;7115;50.150;8.568;2023-12-20T10:30:37;7.07;;;1.50;;
14078;SDS011;7115;50.150;8.568;2023-12-20T10:33:05;4.90;;;1.53;;
14078;SDS011;7115;50.150;8.568;2023-12-20T10:35:34;6.77;;;1.63;;
14078;SDS011;7115;50.150;8.568;2023-12-20T10:38:03;4.10;;;1.23;;
14078;SDS011;7115;50.150;8.568;2023-12-20T10:40:34;2.07;;;0.83;;
14078;SDS011;7115;50.150;8.568;2023-12-20T10:43:05;5.83;;;1.23;;
14078;SDS011;7115;50.150;8.568;2023-12-20T10:45:32;4.40;;;1.40;;
14078;SDS011;7115;50.150;8.568;2023-12-20T10:48:00;4.10;;;1.20;;
14078;SDS011;7115;50.150;8.568;2023-12-20T10:50:28;6.67;;;1.43;;
14078;SDS011;7115;50.150;8.568;2023-12-20T10:52:58;8.93;;;1.80;;
14078;SDS011;7115;50.150;8.568;2023-12-20T10:55:26;6.53;;;1.60;;
14078;SDS011;7115;50.150;8.568;2023-12-20T10:57:54;8.10;;;1.87;;
14078;SDS011;7115;50.150;8.568;2023-12-20T11:00:27;6.50;;;1.57;;
14078;SDS011;7115;50.150;8.568;2023-12-20T11:02:56;5.70;;;1.23;;
14078;SDS011;7115;50.150;8.568;2023-12-20T11:05:31;7.37;;;1.70;;
14078;SDS011;7115;50.150;8.568;2023-12-20T11:08:07;5.17;;;1.67;;
14078;SDS011;7115;50.150;8.568;2023-12-20T11:10:39;7.07;;;1.50;;
14078;SDS011;7115;50.150;8.568;2023-12-20T11:13:17;5.57;;;1.30;;
14078;SDS011;7115;50.150;8.568;2023-12-20T11:15:49;9.67;;;1.37;;
14078;SDS011;7115;50.150;8.568;2023-12-20T11:18:16;4.60;;;1.60;;
14078;SDS011;7115;50.150;8.568;2023-12-20T11:20:43;2.90;;;1.20;;
14078;SDS011;7115;50.150;8.568;2023-12-20T11:23:11;12.27;;;2.27;;
14078;SDS011;7115;50.150;8.568;2023-12-20T11:25:46;8.00;;;1.47;;
14078;SDS011;7115;50.150;8.568;2023-12-20T11:28:15;5.80;;;1.33;;
14078;SDS011;7115;50.150;8.568;2023-12-20T11:30:47;5.27;;;1.60;;
14078;SDS011;7115;50.150;8.568;2023-12-20T11:33:16;6.67;;;1.40;;
14078;SDS011;7115;50.150;8.568;2023-12-20T11:35:47;4.53;;;1.13;;
14078;SDS011;7115;50.150;8.568;2023-12-20T11:38:15;4.60;;;1.20;;
14078;SDS011;7115;50.150;8.568;2023-12-20T11:40:43;6.43;;;1.40;;
14078;SDS011;7115;50.150;8.568;2023-12-20T11:43:11;4.43;;;1.30;;
14078;SDS011;7115;50.150;8.568;2023-12-20T11:45:39;5.90;;;1.10;;
14078;SDS011;7115;50.150;8.568;2023-12-20T11:48:17;7.83;;;1.60;;
14078;SDS011;7115;50.150;8.568;2023-12-20T11:50:45;2.83;;;1.27;;
14078;SDS011;7115;50.150;8.568;2023-12-20T11:53:11;7.03;;;1.30;;
14078;SDS011;7115;50.150;8.568;2023-12-20T11:55:40;7.93;;;1.03;;
14078;SDS011;7115;50.150;8.568;2023-12-20T11:58:07;5.73;;;2.23;;
14078;SDS011;7115;50.150;8.568;2023-12-20T12:00:35;4.40;;;0.77;;
14078;SDS011;7115;50.150;8.568;2023-12-20T12:03:02;4.73;;;1.23;;
14078;SDS011;7115;50.150;8.568;2023-12-20T12:05:30;5.80;;;1.47;;
14078;SDS011;7115;50.150;8.568;2023-12-20T12:07:58;2.77;;;1.07;;
14078;SDS011;7115;50.150;8.568;2023-12-20T12:10:25;5.10;;;0.93;;
14078;SDS011;7115;50.150;8.568;2023-12-20T12:12:54;6.07;;;1.30;;
14078;SDS011;7115;50.150;8.568;2023-12-20T12:15:21;11.63;;;2.57;;
14078;SDS011;7115;50.150;8.568;2023-12-20T12:17:55;3.90;;;1.40;;
14078;SDS011;7115;50.150;8.568;2023-12-20T12:20:23;8.00;;;1.10;;
14078;SDS011;7115;50.150;8.568;2023-12-20T12:22:57;6.13;;;1.30;;
14078;SDS011;7115;50.150;8.568;2023-12-20T12:25:25;4.87;;;1.23;;
14078;SDS011;7115;50.150;8.568;2023-12-20T12:27:55;4.73;;;1.40;;
14078;SDS011;7115;50.150;8.568;2023-12-20T12:30:22;6.40;;;1.10;;
14078;SDS011;7115;50.150;8.568;2023-12-20T12:32:50;2.13;;;1.00;;
14078;SDS011;7115;50.150;8.568;2023-12-20T12:35:17;5.03;;;1.13;;
14078;SDS011;7115;50.150;8.568;2023-12-20T12:37:45;2.90;;;1.10;;
14078;SDS011;7115;50.150;8.568;2023-12-20T12:40:13;4.10;;;1.40;;
14078;SDS011;7115;50.150;8.568;2023-12-20T12:42:41;7.73;;;1.27;;
14078;SDS011;7115;50.150;8.568;2023-12-20T12:45:11;2.47;;;0.90;;
14078;SDS011;7115;50.150;8.568;2023-12-20T12:47:38;4.17;;;1.20;;
14078;SDS011;7115;50.150;8.568;2023-12-20T12:50:06;5.83;;;1.00;;
14078;SDS011;7115;50.150;8.568;2023-12-20T12:52:34;5.33;;;1.30;;
14078;SDS011;7115;50.150;8.568;2023-12-20T12:55:01;2.87;;;1.10;;
14078;SDS011;7115;50.150;8.568;2023-12-20T12:57:31;5.97;;;1.00;;
14078;SDS011;7115;50.150;8.568;2023-12-20T12:59:58;4.50;;;1.30;;
14078;SDS011;7115;50.150;8.568;2023-12-20T13:02:26;5.10;;;1.47;;
14078;SDS011;7115;50.150;8.568;2023-12-20T13:04:53;3.60;;;1.40;;
14078;SDS011;7115;50.150;8.568;2023-12-20T13:07:20;8.03;;;1.60;;
14078;SDS011;7115;50.150;8.568;2023-12-20T13:09:47;5.63;;;1.30;;
14078;SDS011;7115;50.150;8.568;2023-12-20T13:12:14;6.03;;;1.40;;
14078;SDS011;7115;50.150;8.568;2023-12-20T13:14:41;2.23;;;0.90;;
14078;SDS011;7115;50.150;8.568;2023-12-20T13:17:08;8.03;;;1.60;;
14078;SDS011;7115;50.150;8.568;2023-12-20T13:19:36;7.67;;;1.40;;
14078;SDS011;7115;50.150;8.568;2023-12-20T13:22:04;6.80;;;1.20;;
14078;SDS011;7115;50.150;8.568;2023-12-20T13:24:31;4.27;;;1.07;;
14078;SDS011;7115;50.150;8.568;2023-12-20T13:26:58;5.27;;;1.47;;
14078;SDS011;7115;50.150;8.568;2023-12-20T13:29:25;3.93;;;1.30;;
14078;SDS011;7115;50.150;8.568;2023-12-20T13:31:55;4.00;;;1.43;;
14078;SDS011;7115;50.150;8.568;2023-12-20T13:34:23;5.37;;;1.67;;
14078;SDS011;7115;50.150;8.568;2023-12-20T13:36:52;5.67;;;1.70;;
14078;SDS011;7115;50.150;8.568;2023-12-20T13:39:19;5.00;;;1.83;;
14078;SDS011;7115;50.150;8.568;2023-12-20T13:41:47;6.10;;;1.57;;
14078;SDS011;7115;50.150;8.568;2023-12-20T13:44:14;9.87;;;1.77;;
14078;SDS011;7115;50.150;8.568;2023-12-20T13:46:41;5.20;;;1.40;;
14078;SDS011;7115;50.150;8.568;2023-12-20T13:49:08;6.53;;;1.60;;
14078;SDS011;7115;50.150;8.568;2023-12-20T13:51:36;6.00;;;1.40;;
14078;SDS011;7115;50.150;8.568;2023-12-20T13:54:04;5.17;;;1.70;;
14078;SDS011;7115;50.150;8.568;2023-12-20T13:56:31;6.93;;;2.43;;
14078;SDS011;7115;50.150;8.568;2023-12-20T13:59:09;7.50;;;2.50;;
14078;SDS011;7115;50.150;8.568;2023-12-20T14:01:36;8.07;;;1.53;;
14078;SDS011;7115;50.150;8.568;2023-12-20T14:04:03;2.33;;;1.07;;
14078;SDS011;7115;50.150;8.568;2023-12-20T14:06:30;5.93;;;1.80;;
14078;SDS011;7115;50.150;8.568;2023-12-20T14:08:57;9.27;;;1.37;;
14078;SDS011;7115;50.150;8.568;2023-12-20T14:11:27;3.23;;;1.30;;
14078;SDS011;7115;50.150;8.568;2023-12-20T14:13:54;6.87;;;1.30;;
14078;SDS011;7115;50.150;8.568;2023-12-20T14:16:24;7.93;;;1.93;;
14078;SDS011;7115;50.150;8.568;2023-12-20T14:18:51;3.53;;;1.37;;
14078;SDS011;7115;50.150;8.568;2023-12-20T14:21:19;2.93;;;1.03;;
14078;SDS011;7115;50.150;8.568;2023-12-20T14:23:46;4.50;;;1.40;;
14078;SDS011;7115;50.150;8.568;2023-12-20T14:26:15;4.60;;;1.20;;
14078;SDS011;7115;50.150;8.568;2023-12-20T14:28:43;3.03;;;1.17;;
14078;SDS011;7115;50.150;8.568;2023-12-20T14:31:10;3.87;;;2.43;;
14078;SDS011;7115;50.150;8.568;2023-12-20T14:33:38;3.83;;;1.40;;
14078;SDS011;7115;50.150;8.568;2023-12-20T14:36:06;4.57;;;1.40;;
14078;SDS011;7115;50.150;8.568;2023-12-20T14:38:33;3.77;;;1.27;;
14078;SDS011;7115;50.150;8.568;2023-12-20T14:41:01;5.37;;;1.03;;
14078;SDS011;7115;50.150;8.568;2023-12-20T14:43:30;2.70;;;1.10;;
14078;SDS011;7115;50.150;8.568;2023-12-20T14:45:58;2.77;;;1.00;;
14078;SDS011;7115;50.150;8.568;2023-12-20T14:48:25;6.33;;;1.13;;
14078;SDS011;7115;50.150;8.568;2023-12-20T14:50:54;5.60;;;1.87;;
14078;SDS011;7115;50.150;8.568;2023-12-20T14:53:21;5.13;;;1.30;;
14078;SDS011;7115;50.150;8.568;2023-12-20T14:55:49;1.23;;;0.50;;
14078;SDS011;7115;50.150;8.568;2023-12-20T14:58:17;2.57;;;0.90;;
14078;SDS011;7115;50.150;8.568;2023-12-20T15:00:44;2.97;;;0.90;;
14078;SDS011;7115;50.150;8.568;2023-12-20T15:03:12;5.00;;;0.83;;
14078;SDS011;7115;50.150;8.568;2023-12-20T15:05:39;18.80;;;7.20;;